createdAt,value
2023-03-06T00:01:54.073Z,4.34
2023-03-06T00:04:20.772Z,4.31
2023-03-06T00:06:47.392Z,4.25
2023-03-06T00:09:14.010Z,4.11
2023-03-06T00:11:40.619Z,4.14
2023-03-06T00:14:07.257Z,4.28
2023-03-06T00:16:34.079Z,4.31
2023-03-06T00:19:00.695Z,4.17
2023-03-06T00:21:27.356Z,4.26
2023-03-06T00:23:53.991Z,4.27
2023-03-06T00:26:20.625Z,4.19
2023-03-06T00:28:47.222Z,4.11
2023-03-06T00:31:13.932Z,4.15
2023-03-06T00:33:40.642Z,4.19
2023-03-06T00:36:07.572Z,4.21
2023-03-06T00:38:35.661Z,4.27
2023-03-06T00:41:10.642Z,4.36
2023-03-06T00:43:37.499Z,4.29
2023-03-06T00:46:05.716Z,4.30
2023-03-06T00:48:33.346Z,4.24
2023-03-06T00:51:00.442Z,4.29
2023-03-06T00:53:27.149Z,4.29
2023-03-06T00:55:53.884Z,4.28
2023-03-06T00:58:20.556Z,4.21
2023-03-06T01:00:47.223Z,4.10
2023-03-06T01:03:13.882Z,4.13
2023-03-06T01:05:40.699Z,4.17
2023-03-06T01:08:08.825Z,4.22
2023-03-06T01:10:38.961Z,4.13
2023-03-06T01:13:06.051Z,4.18
2023-03-06T01:15:32.768Z,4.18
2023-03-06T01:17:59.435Z,4.11
2023-03-06T01:20:26.177Z,4.18
2023-03-06T01:22:54.533Z,4.13
2023-03-06T01:25:21.464Z,4.05
2023-03-06T01:27:48.124Z,4.16
2023-03-06T01:30:14.919Z,4.22
2023-03-06T01:32:41.624Z,4.23
2023-03-06T01:35:09.023Z,4.06
2023-03-06T01:37:36.776Z,3.82
2023-03-06T01:40:04.397Z,3.89
2023-03-06T01:42:32.190Z,4.07
2023-03-06T01:45:04.385Z,4.19
2023-03-06T01:47:31.198Z,4.18
2023-03-06T01:49:59.108Z,4.06
2023-03-06T01:52:30.356Z,4.06
2023-03-06T01:55:02.938Z,4.16
2023-03-06T01:57:40.975Z,4.17
2023-03-06T02:00:12.383Z,4.07
2023-03-06T02:02:40.377Z,3.85
2023-03-06T02:05:07.778Z,3.94
2023-03-06T02:07:36.286Z,3.94
2023-03-06T02:10:02.944Z,3.78
2023-03-06T02:12:29.666Z,3.89
2023-03-06T02:14:56.474Z,4.00
2023-03-06T02:17:24.273Z,4.00
2023-03-06T02:20:12.092Z,4.16
2023-03-06T02:23:05.061Z,4.06
2023-03-06T02:25:46.080Z,3.82
2023-03-06T02:28:16.147Z,3.96
2023-03-06T02:30:44.950Z,4.06
2023-03-06T02:33:14.299Z,4.02
2023-03-06T02:35:46.658Z,4.07
2023-03-06T02:38:19.794Z,4.12
2023-03-06T02:40:49.819Z,4.07
2023-03-06T02:43:21.215Z,4.05
2023-03-06T02:45:50.531Z,3.95
2023-03-06T02:48:18.779Z,3.98
2023-03-06T02:50:46.554Z,4.02
2023-03-06T02:53:15.053Z,3.96
2023-03-06T02:55:42.455Z,4.02
2023-03-06T02:58:09.310Z,4.02
2023-03-06T03:00:36.549Z,4.01
2023-03-06T03:03:04.378Z,3.93
2023-03-06T03:05:31.452Z,3.65
2023-03-06T03:07:58.449Z,3.72
2023-03-06T03:10:25.311Z,3.82
2023-03-06T03:12:51.971Z,3.88
2023-03-06T03:15:18.695Z,3.85
2023-03-06T03:17:45.304Z,3.84
2023-03-06T03:20:15.082Z,3.79
2023-03-06T03:22:41.796Z,3.61
2023-03-06T03:25:09.290Z,3.50
2023-03-06T03:27:35.891Z,3.71
2023-03-06T03:30:02.563Z,3.80
2023-03-06T03:32:29.608Z,3.76
2023-03-06T03:34:56.517Z,3.83
2023-03-06T03:37:23.269Z,3.73
2023-03-06T03:39:49.941Z,3.84
2023-03-06T03:42:16.603Z,3.76
2023-03-06T03:44:43.266Z,3.82
2023-03-06T03:47:09.904Z,3.78
2023-03-06T03:49:36.542Z,3.81
2023-03-06T03:52:03.324Z,3.68
2023-03-06T03:54:29.968Z,3.57
2023-03-06T03:56:56.630Z,3.69
2023-03-06T03:59:23.306Z,3.58
2023-03-06T04:01:49.949Z,3.62
2023-03-06T04:04:16.634Z,3.72
2023-03-06T04:06:43.343Z,3.74
2023-03-06T04:09:10.162Z,3.50
2023-03-06T04:11:36.946Z,3.49
2023-03-06T04:14:03.590Z,3.36
2023-03-06T04:16:30.396Z,3.34
2023-03-06T04:18:57.176Z,3.48
2023-03-06T04:21:23.769Z,3.49
2023-03-06T04:23:50.457Z,3.53
2023-03-06T04:26:17.050Z,3.34
2023-03-06T04:28:43.720Z,3.44
2023-03-06T04:31:12.426Z,3.53
2023-03-06T04:33:39.639Z,3.41
2023-03-06T04:36:06.521Z,3.45
2023-03-06T04:38:33.290Z,3.47
2023-03-06T04:40:59.941Z,3.30
2023-03-06T04:43:26.787Z,3.27
2023-03-06T04:45:53.464Z,3.22
2023-03-06T04:48:20.117Z,3.26
2023-03-06T04:50:46.982Z,3.27
2023-03-06T04:53:14.695Z,3.17
2023-03-06T04:55:41.362Z,3.01
2023-03-06T04:58:07.991Z,3.16
2023-03-06T05:00:34.812Z,3.07
2023-03-06T05:03:02.037Z,3.07
2023-03-06T05:05:29.375Z,3.03
2023-03-06T05:07:56.500Z,3.04
2023-03-06T05:10:23.915Z,3.01
2023-03-06T05:12:50.578Z,3.09
2023-03-06T05:15:17.868Z,3.18
2023-03-06T05:17:44.767Z,3.08
2023-03-06T05:20:13.190Z,3.09
2023-03-06T05:22:40.357Z,3.03
2023-03-06T05:25:07.567Z,2.96
2023-03-06T05:27:34.557Z,3.00
2023-03-06T05:30:01.372Z,2.94
2023-03-06T05:32:28.478Z,3.05
2023-03-06T05:34:55.698Z,3.04
2023-03-06T05:37:23.192Z,3.07
2023-03-06T05:39:51.042Z,3.03
2023-03-06T05:42:18.486Z,3.02
2023-03-06T05:44:45.396Z,2.94
2023-03-06T05:47:12.636Z,2.99
2023-03-06T05:49:39.634Z,2.94
2023-03-06T05:52:07.333Z,2.99
2023-03-06T05:54:36.740Z,3.02
2023-03-06T05:57:05.345Z,2.81
2023-03-06T05:59:33.170Z,2.72
2023-03-06T06:02:00.766Z,2.81
2023-03-06T06:04:27.865Z,2.96
2023-03-06T06:06:58.029Z,3.00
2023-03-06T06:09:24.936Z,2.83
2023-03-06T06:11:56.618Z,2.72
2023-03-06T06:14:23.626Z,2.86
2023-03-06T06:16:50.333Z,2.85
2023-03-06T06:19:20.379Z,2.91
2023-03-06T06:21:48.969Z,2.87
2023-03-06T06:24:17.135Z,2.94
2023-03-06T06:26:44.002Z,3.07
2023-03-06T06:29:11.940Z,3.12
2023-03-06T06:31:39.450Z,3.14
2023-03-06T06:34:07.409Z,3.12
2023-03-06T06:36:34.636Z,3.09
2023-03-06T06:39:01.608Z,3.12
2023-03-06T06:41:50.735Z,3.21
2023-03-06T06:44:16.272Z,3.29
2023-03-06T06:49:32.219Z,3.29
2023-03-06T06:51:58.934Z,3.34
2023-03-06T06:54:26.386Z,3.48
2023-03-06T06:56:53.043Z,3.50
2023-03-06T06:59:20.002Z,3.63
2023-03-06T07:01:46.697Z,3.74
2023-03-06T07:04:14.100Z,3.73
2023-03-06T07:06:41.838Z,3.76
2023-03-06T07:09:08.513Z,3.85
2023-03-06T07:11:35.171Z,3.73
2023-03-06T07:14:02.112Z,3.88
2023-03-06T07:16:28.715Z,3.99
2023-03-06T07:18:55.368Z,3.92
2023-03-06T07:21:22.210Z,3.83
2023-03-06T07:23:48.854Z,3.54
2023-03-06T07:26:15.587Z,3.40
2023-03-06T07:28:51.962Z,3.46
2023-03-06T07:31:22.253Z,3.48
2023-03-06T07:33:50.733Z,3.41
2023-03-06T07:36:17.552Z,3.54
2023-03-06T07:38:44.177Z,3.61
2023-03-06T07:41:13.677Z,3.61
2023-03-06T07:43:41.317Z,3.31
2023-03-06T07:46:08.271Z,3.47
2023-03-06T07:48:36.276Z,3.54
2023-03-06T07:51:05.984Z,3.64
2023-03-06T07:53:33.303Z,3.77
2023-03-06T07:56:00.468Z,3.69
2023-03-06T07:58:27.203Z,3.77
2023-03-06T08:00:53.851Z,4.11
2023-03-06T08:03:20.474Z,4.27
2023-03-06T08:05:47.132Z,4.09
2023-03-06T08:08:13.800Z,4.10
2023-03-06T08:10:40.555Z,4.22
2023-03-06T08:13:07.168Z,4.37
2023-03-06T08:15:33.808Z,4.40
2023-03-06T08:18:00.450Z,4.59
2023-03-06T08:20:27.140Z,4.62
2023-03-06T08:22:53.726Z,4.40
2023-03-06T08:25:20.348Z,4.33
2023-03-06T08:27:47.499Z,4.34
2023-03-06T08:30:14.818Z,4.34
2023-03-06T08:32:41.583Z,4.34
2023-03-06T08:35:08.687Z,4.27
2023-03-06T08:37:35.342Z,4.39
2023-03-06T08:40:04.657Z,4.46
2023-03-06T08:42:32.591Z,4.48
2023-03-06T08:44:59.259Z,4.40
2023-03-06T08:47:26.034Z,4.42
2023-03-06T08:49:52.687Z,4.36
2023-03-06T08:52:19.941Z,4.58
2023-03-06T08:54:46.682Z,4.73
2023-03-06T08:57:13.370Z,4.89
2023-03-06T08:59:40.061Z,4.41
2023-03-06T09:02:07.811Z,4.19
2023-03-06T09:04:34.779Z,4.35
2023-03-06T09:07:01.874Z,4.32
2023-03-06T09:09:28.591Z,4.22
2023-03-06T09:11:55.214Z,4.47
2023-03-06T09:14:21.975Z,4.35
2023-03-06T09:16:48.623Z,4.44
2023-03-06T09:19:15.248Z,4.53
2023-03-06T09:21:41.919Z,4.44
2023-03-06T09:24:08.936Z,4.41
2023-03-06T09:26:45.453Z,4.48
2023-03-06T09:29:13.167Z,4.70
2023-03-06T09:31:39.805Z,4.74
2023-03-06T09:34:06.456Z,4.84
2023-03-06T09:36:42.728Z,4.89
2023-03-06T09:39:16.132Z,4.58
2023-03-06T09:41:43.143Z,4.64
2023-03-06T09:44:21.263Z,4.75
2023-03-06T09:47:22.267Z,5.02
2023-03-06T09:50:01.239Z,5.13
2023-03-06T09:52:33.607Z,5.27
2023-03-06T09:55:14.903Z,5.48
2023-03-06T09:58:07.213Z,5.33
2023-03-06T10:00:38.724Z,4.82
2023-03-06T10:03:22.250Z,4.60
2023-03-06T10:06:18.465Z,4.76
2023-03-06T10:09:10.239Z,4.73
2023-03-06T10:11:43.539Z,4.93
2023-03-06T10:14:22.821Z,4.98
2023-03-06T10:16:49.734Z,5.06
2023-03-06T10:19:21.411Z,5.07
2023-03-06T10:22:21.833Z,5.35
2023-03-06T10:24:53.347Z,5.48
2023-03-06T10:27:36.568Z,5.75
2023-03-06T10:30:23.194Z,5.68
2023-03-06T10:33:22.872Z,5.98
2023-03-06T10:35:52.262Z,6.27
2023-03-06T10:38:26.516Z,6.12
2023-03-06T10:41:08.874Z,6.21
2023-03-06T10:43:36.773Z,5.85
2023-03-06T10:46:05.289Z,5.81
2023-03-06T10:48:36.163Z,5.72
2023-03-06T10:51:23.491Z,5.79
2023-03-06T10:53:59.658Z,5.85
2023-03-06T10:56:38.808Z,5.79
2023-03-06T10:59:12.860Z,5.82
2023-03-06T11:01:41.275Z,6.00
2023-03-06T11:04:27.485Z,5.74
2023-03-06T11:07:16.076Z,5.62
2023-03-06T11:09:47.732Z,5.17
2023-03-06T11:12:34.074Z,5.33
2023-03-06T11:15:17.653Z,5.18
2023-03-06T11:18:08.939Z,4.88
2023-03-06T11:20:51.385Z,4.91
2023-03-06T11:23:29.173Z,5.36
2023-03-06T11:26:02.433Z,5.53
2023-03-06T11:28:30.246Z,5.68
2023-03-06T11:31:03.850Z,5.65
2023-03-06T11:33:53.718Z,5.51
2023-03-06T11:36:30.456Z,5.54
2023-03-06T11:38:57.123Z,5.55
2023-03-06T11:41:59.115Z,5.24
2023-03-06T11:45:07.234Z,5.22
2023-03-06T11:47:55.280Z,5.16
2023-03-06T11:50:37.708Z,5.21
2023-03-06T11:53:10.425Z,5.07
2023-03-06T11:56:22.902Z,5.11
2023-03-06T11:59:12.011Z,5.01
2023-03-06T12:01:58.085Z,4.94
2023-03-06T12:04:51.120Z,4.93
2023-03-06T12:07:33.765Z,4.99
2023-03-06T12:10:33.151Z,5.08
2023-03-06T12:13:14.895Z,5.01
2023-03-06T12:15:56.775Z,5.02
2023-03-06T12:18:32.371Z,5.07
2023-03-06T12:21:07.844Z,4.99
2023-03-06T12:24:05.204Z,4.97
2023-03-06T12:27:00.137Z,4.91
2023-03-06T12:29:41.649Z,4.58
2023-03-06T12:32:22.442Z,4.27
2023-03-06T12:35:06.097Z,4.20
2023-03-06T12:37:45.387Z,4.14
2023-03-06T12:40:44.302Z,4.04
2023-03-06T12:43:39.886Z,4.21
2023-03-06T12:46:21.570Z,4.21
2023-03-06T12:48:54.845Z,4.12
2023-03-06T12:51:21.639Z,4.28
2023-03-06T12:53:50.385Z,4.38
2023-03-06T12:56:19.086Z,4.51
2023-03-06T12:58:53.922Z,4.61
2023-03-06T13:01:47.744Z,4.35
2023-03-06T13:04:35.775Z,4.06
2023-03-06T13:07:11.389Z,4.21
2023-03-06T13:10:03.724Z,4.12
2023-03-06T13:13:08.632Z,4.33
2023-03-06T13:15:45.940Z,4.34
2023-03-06T13:18:21.581Z,4.20
2023-03-06T13:20:52.790Z,4.42
2023-03-06T13:23:38.366Z,4.30
2023-03-06T13:26:25.418Z,4.33
2023-03-06T13:28:54.112Z,4.64
2023-03-06T13:31:33.890Z,4.88
2023-03-06T13:34:05.836Z,4.90
2023-03-06T13:36:39.579Z,5.07
2023-03-06T13:39:12.929Z,4.96
2023-03-06T13:41:43.879Z,4.39
2023-03-06T13:44:25.567Z,4.45
2023-03-06T13:47:05.753Z,4.68
2023-03-06T13:49:33.978Z,4.69
2023-03-06T13:52:21.466Z,4.40
2023-03-06T13:55:06.307Z,4.44
2023-03-06T13:57:54.074Z,4.57
2023-03-06T14:00:39.395Z,4.51
2023-03-06T14:03:09.121Z,4.36
2023-03-06T14:05:47.344Z,4.40
2023-03-06T14:08:17.459Z,4.46
2023-03-06T14:10:47.266Z,4.45
2023-03-06T14:13:41.827Z,4.46
2023-03-06T14:16:21.361Z,4.62
2023-03-06T14:18:50.751Z,4.36
2023-03-06T14:21:27.744Z,4.53
2023-03-06T14:24:02.957Z,4.38
2023-03-06T14:26:44.882Z,4.28
2023-03-06T14:29:21.278Z,4.27
2023-03-06T14:31:51.100Z,4.53
2023-03-06T14:34:45.959Z,4.42
2023-03-06T14:37:22.797Z,4.66
2023-03-06T14:39:49.601Z,4.48
2023-03-06T14:42:26.211Z,4.67
2023-03-06T14:45:16.733Z,4.56
2023-03-06T14:47:49.241Z,4.70
2023-03-06T14:50:20.232Z,4.84
2023-03-06T14:52:47.616Z,4.88
2023-03-06T14:55:19.834Z,4.93
2023-03-06T14:57:53.590Z,4.88
2023-03-06T15:00:24.581Z,4.74
2023-03-06T15:02:54.358Z,4.65
2023-03-06T15:05:29.977Z,4.81
2023-03-06T15:08:03.449Z,4.82
2023-03-06T15:10:32.729Z,4.99
2023-03-06T15:13:21.583Z,5.03
2023-03-06T15:16:18.701Z,5.14
2023-03-06T15:18:59.402Z,5.25
2023-03-06T15:21:27.497Z,5.09
2023-03-06T15:23:56.819Z,5.14
2023-03-06T15:26:29.450Z,4.88
2023-03-06T15:29:08.926Z,4.91
2023-03-06T15:32:17.294Z,4.82
2023-03-06T15:34:43.902Z,4.79
2023-03-06T15:37:28.113Z,4.87
2023-03-06T15:40:09.428Z,4.71
2023-03-06T15:42:36.661Z,4.70
2023-03-06T15:45:16.007Z,4.69
2023-03-06T15:47:44.814Z,4.73
2023-03-06T15:50:26.606Z,4.60
2023-03-06T15:52:53.528Z,4.72
2023-03-06T15:55:23.880Z,4.54
2023-03-06T15:57:54.413Z,4.32
2023-03-06T16:00:29.694Z,4.30
2023-03-06T16:02:57.394Z,4.35
2023-03-06T16:05:25.447Z,4.45
2023-03-06T16:07:52.098Z,4.42
2023-03-06T16:10:21.881Z,4.52
2023-03-06T16:12:56.502Z,4.39
2023-03-06T16:15:28.991Z,4.34
2023-03-06T16:17:59.856Z,4.40
2023-03-06T16:20:28.588Z,4.52
2023-03-06T16:22:55.868Z,4.55
2023-03-06T16:25:24.817Z,4.43
2023-03-06T16:27:59.963Z,4.58
2023-03-06T16:30:29.709Z,4.66
2023-03-06T16:32:57.121Z,4.68
2023-03-06T16:35:24.181Z,4.76
2023-03-06T16:37:51.772Z,4.78
2023-03-06T16:40:30.899Z,4.83
2023-03-06T16:42:57.480Z,4.88
2023-03-06T16:45:24.698Z,4.98
2023-03-06T16:47:51.918Z,5.08
2023-03-06T16:50:26.346Z,5.01
2023-03-06T16:52:54.890Z,4.96
2023-03-06T16:55:22.482Z,4.84
2023-03-06T16:57:49.253Z,4.81
2023-03-06T17:00:18.712Z,5.03
2023-03-06T17:02:48.763Z,5.11
2023-03-06T17:05:15.623Z,5.19
2023-03-06T17:07:42.422Z,5.17
2023-03-06T17:10:13.229Z,5.00
2023-03-06T17:12:39.898Z,5.19
2023-03-06T17:15:07.521Z,5.30
2023-03-06T17:17:34.384Z,5.32
2023-03-06T17:20:01.524Z,5.33
2023-03-06T17:22:28.467Z,5.48
2023-03-06T17:24:55.083Z,5.62
2023-03-06T17:27:22.956Z,5.71
2023-03-06T17:29:49.672Z,5.85
2023-03-06T17:32:16.321Z,5.91
2023-03-06T17:34:43.049Z,5.77
2023-03-06T17:37:09.723Z,5.78
2023-03-06T17:39:38.911Z,5.71
2023-03-06T17:42:06.648Z,5.85
2023-03-06T17:44:34.526Z,5.84
2023-03-06T17:47:01.890Z,5.62
2023-03-06T17:49:28.604Z,5.31
2023-03-06T17:51:58.039Z,5.66
2023-03-06T17:54:29.297Z,5.80
2023-03-06T17:57:04.539Z,5.71
2023-03-06T17:59:34.222Z,5.67
2023-03-06T18:02:01.307Z,5.82
2023-03-06T18:04:28.143Z,5.59
2023-03-06T18:06:54.922Z,5.53
2023-03-06T18:09:21.603Z,5.39
2023-03-06T18:11:48.203Z,5.37
2023-03-06T18:14:14.911Z,5.37
2023-03-06T18:16:41.621Z,5.18
2023-03-06T18:19:11.112Z,5.02
2023-03-06T18:21:39.657Z,5.08
2023-03-06T18:24:07.048Z,5.19
2023-03-06T18:26:33.794Z,5.16
2023-03-06T18:29:04.372Z,5.12
2023-03-06T18:31:39.765Z,5.13
2023-03-06T18:34:12.230Z,5.08
2023-03-06T18:36:39.736Z,4.87
2023-03-06T18:39:09.632Z,5.03
2023-03-06T18:41:37.134Z,5.13
2023-03-06T18:44:04.450Z,5.19
2023-03-06T18:46:36.897Z,4.47
2023-03-06T18:49:04.298Z,4.41
2023-03-06T18:51:31.285Z,4.36
2023-03-06T18:53:59.037Z,4.16
2023-03-06T18:56:25.859Z,3.97
2023-03-06T18:58:52.858Z,3.87
2023-03-06T19:01:19.620Z,3.80
2023-03-06T19:03:46.855Z,3.85
2023-03-06T19:06:15.372Z,3.89
2023-03-06T19:08:42.206Z,4.14
2023-03-06T19:11:17.050Z,4.11
2023-03-06T19:13:44.584Z,3.65
2023-03-06T19:16:28.328Z,3.60
2023-03-06T19:18:56.180Z,3.82
2023-03-06T19:21:24.854Z,3.74
2023-03-06T19:23:51.789Z,3.89
2023-03-06T19:26:18.998Z,4.22
2023-03-06T19:28:46.537Z,4.18
2023-03-06T19:31:24.205Z,3.86
2023-03-06T19:33:53.140Z,3.68
2023-03-06T19:36:23.652Z,3.69
2023-03-06T19:38:54.955Z,3.64
2023-03-06T19:41:21.905Z,3.62
2023-03-06T19:43:54.799Z,3.35
2023-03-06T19:46:22.895Z,3.37
2023-03-06T19:48:57.661Z,3.49
2023-03-06T19:51:25.572Z,3.76
2023-03-06T19:53:52.839Z,3.41
2023-03-06T19:56:22.678Z,3.56
2023-03-06T19:58:49.288Z,3.55
2023-03-06T20:01:20.783Z,3.53
2023-03-06T20:03:47.590Z,3.45
2023-03-06T20:06:17.474Z,3.49
2023-03-06T20:08:45.250Z,3.91
2023-03-06T20:11:19.533Z,3.77
2023-03-06T20:13:47.946Z,3.84
2023-03-06T20:16:15.417Z,3.76
2023-03-06T20:18:42.412Z,3.93
2023-03-06T20:21:09.114Z,3.95
2023-03-06T20:23:35.846Z,3.87
2023-03-06T20:26:14.963Z,3.96
2023-03-06T20:28:42.970Z,3.83
2023-03-06T20:31:26.466Z,3.67
2023-03-06T20:33:54.263Z,3.37
2023-03-06T20:36:23.849Z,3.44
2023-03-06T20:38:50.845Z,3.24
2023-03-06T20:41:23.018Z,3.40
2023-03-06T20:43:50.006Z,3.81
2023-03-06T20:46:17.763Z,4.06
2023-03-06T20:48:48.539Z,4.26
2023-03-06T20:51:18.853Z,4.20
2023-03-06T20:53:49.698Z,4.34
2023-03-06T20:56:18.587Z,4.35
2023-03-06T20:58:45.405Z,4.49
2023-03-06T21:01:41.211Z,4.73
2023-03-06T21:04:13.969Z,4.82
2023-03-06T21:06:43.987Z,4.92
2023-03-06T21:09:11.102Z,4.92
2023-03-06T21:11:37.974Z,4.95
2023-03-06T21:14:04.637Z,5.08
2023-03-06T21:16:31.342Z,5.10
2023-03-06T21:18:59.863Z,5.15
2023-03-06T21:21:29.748Z,5.15
2023-03-06T21:23:56.596Z,5.19
2023-03-06T21:26:26.013Z,5.29
2023-03-06T21:28:53.306Z,5.24
2023-03-06T21:31:21.672Z,5.20
2023-03-06T21:33:49.852Z,5.26
2023-03-06T21:36:18.745Z,4.95
2023-03-06T21:38:45.597Z,5.01
2023-03-06T21:41:17.799Z,4.64
2023-03-06T21:43:44.686Z,4.81
2023-03-06T21:46:11.946Z,4.68
2023-03-06T21:48:38.648Z,4.14
2023-03-06T21:51:13.738Z,4.25
2023-03-06T21:53:44.265Z,4.49
2023-03-06T21:56:12.170Z,4.43
2023-03-06T21:58:39.281Z,4.61
2023-03-06T22:01:21.808Z,4.57
2023-03-06T22:03:48.691Z,4.49
2023-03-06T22:06:18.555Z,4.34
2023-03-06T22:08:46.361Z,4.28
2023-03-06T22:11:16.067Z,4.02
2023-03-06T22:13:43.347Z,3.70
2023-03-06T22:16:10.428Z,3.88
2023-03-06T22:18:37.735Z,4.07
2023-03-06T22:21:09.327Z,3.77
2023-03-06T22:23:36.305Z,3.88
2023-03-06T22:26:08.314Z,4.10
2023-03-06T22:28:35.344Z,3.42
2023-03-06T22:31:09.847Z,2.67
2023-03-06T22:33:36.887Z,2.55
2023-03-06T22:36:07.663Z,2.61
2023-03-06T22:38:39.993Z,2.48
2023-03-06T22:41:07.988Z,2.42
2023-03-06T22:43:35.559Z,2.30
2023-03-06T22:46:11.069Z,2.29
2023-03-06T22:48:38.136Z,2.20
2023-03-06T22:51:10.801Z,2.14
2023-03-06T22:53:38.010Z,2.09
2023-03-06T22:56:06.893Z,2.05
2023-03-06T22:58:37.146Z,2.01
2023-03-06T23:01:09.864Z,2.00
2023-03-06T23:03:38.515Z,2.04
2023-03-06T23:06:12.798Z,1.97
2023-03-06T23:08:39.434Z,1.88
2023-03-06T23:11:10.957Z,1.86
2023-03-06T23:13:38.518Z,1.84
2023-03-06T23:16:06.930Z,1.76
2023-03-06T23:18:35.315Z,1.74
2023-03-06T23:21:09.496Z,1.70
2023-03-06T23:23:40.168Z,1.71
2023-03-06T23:26:08.530Z,1.71
2023-03-06T23:28:35.224Z,1.70
2023-03-06T23:31:12.975Z,1.70
2023-03-06T23:33:39.966Z,1.72
2023-03-06T23:36:09.411Z,1.71
2023-03-06T23:38:36.088Z,1.74
2023-03-06T23:41:11.530Z,1.95
2023-03-06T23:43:38.458Z,2.35
2023-03-06T23:46:07.070Z,2.30
2023-03-06T23:48:35.911Z,2.34
2023-03-06T23:51:24.098Z,2.45
2023-03-06T23:53:56.610Z,2.46
2023-03-06T23:56:24.733Z,2.56
2023-03-06T23:58:51.596Z,2.37
